createdAt,value
2023-01-26T00:01:21.953Z,23.38
2023-01-26T00:02:53.629Z,16.08
2023-01-26T00:04:25.415Z,16.55
2023-01-26T00:05:57.024Z,18.70
2023-01-26T00:07:29.264Z,22.15
2023-01-26T00:09:01.734Z,19.45
2023-01-26T00:10:35.769Z,19.15
2023-01-26T00:12:07.634Z,19.02
2023-01-26T00:13:39.927Z,22.33
2023-01-26T00:15:11.556Z,20.13
2023-01-26T00:16:43.206Z,21.63
2023-01-26T00:18:15.118Z,26.67
2023-01-26T00:19:46.654Z,25.45
2023-01-26T00:21:21.096Z,21.33
2023-01-26T00:22:52.678Z,19.65
2023-01-26T00:24:24.522Z,23.90
2023-01-26T00:25:56.235Z,20.15
2023-01-26T00:27:27.808Z,21.13
2023-01-26T00:29:00.096Z,19.70
2023-01-26T00:30:31.666Z,23.35
2023-01-26T00:32:03.300Z,23.02
2023-01-26T00:33:34.850Z,30.30
2023-01-26T00:35:07.675Z,26.52
2023-01-26T00:36:41.091Z,26.55
2023-01-26T00:38:12.859Z,28.55
2023-01-26T00:39:45.830Z,26.50
2023-01-26T00:41:36.130Z,31.92
2023-01-26T00:43:07.753Z,30.05
2023-01-26T00:44:41.905Z,25.60
2023-01-26T00:46:13.541Z,22.83
2023-01-26T00:47:45.132Z,27.17
2023-01-26T00:49:16.705Z,25.30
2023-01-26T00:50:50.983Z,25.67
2023-01-26T00:52:22.553Z,25.05
2023-01-26T00:53:55.397Z,26.90
2023-01-26T00:55:33.458Z,27.83
2023-01-26T00:57:05.116Z,28.20
2023-01-26T00:58:36.679Z,29.73
2023-01-26T01:00:10.847Z,26.92
2023-01-26T01:01:42.711Z,22.50
2023-01-26T01:03:14.228Z,27.50
2023-01-26T01:04:45.908Z,29.55
2023-01-26T01:06:17.855Z,23.63
2023-01-26T01:07:49.642Z,26.73
2023-01-26T01:09:21.303Z,28.02
2023-01-26T01:11:09.051Z,23.90
2023-01-26T01:12:41.029Z,23.30
2023-01-26T01:14:13.380Z,26.33
2023-01-26T01:15:44.988Z,25.20
2023-01-26T01:17:16.603Z,27.23
2023-01-26T01:18:48.514Z,23.25
2023-01-26T01:20:20.477Z,25.90
2023-01-26T01:21:51.981Z,23.08
2023-01-26T01:23:23.601Z,23.75
2023-01-26T01:24:55.134Z,27.55
2023-01-26T01:26:27.418Z,24.35
2023-01-26T01:27:59.000Z,24.90
2023-01-26T01:29:30.571Z,24.40
2023-01-26T01:31:06.993Z,27.55
2023-01-26T01:32:41.302Z,30.05
2023-01-26T01:34:12.957Z,26.00
2023-01-26T01:35:45.011Z,28.70
2023-01-26T01:37:17.952Z,23.60
2023-01-26T01:38:50.249Z,25.85
2023-01-26T01:40:21.813Z,24.73
2023-01-26T01:41:53.725Z,23.08
2023-01-26T01:43:27.112Z,26.33
2023-01-26T01:45:20.568Z,24.33
2023-01-26T01:46:57.489Z,22.75
2023-01-26T01:48:52.602Z,25.88
2023-01-26T01:50:25.499Z,25.77
2023-01-26T01:52:05.034Z,30.83
2023-01-26T01:53:40.885Z,26.98
2023-01-26T01:55:14.554Z,23.00
2023-01-26T01:56:52.434Z,26.73
2023-01-26T01:58:24.806Z,21.52
2023-01-26T02:00:08.841Z,21.15
2023-01-26T02:01:48.344Z,24.75
2023-01-26T02:03:21.271Z,20.50
2023-01-26T02:04:57.654Z,25.63
2023-01-26T02:06:43.625Z,25.75
2023-01-26T02:08:18.166Z,22.92
2023-01-26T02:10:08.949Z,23.05
2023-01-26T02:11:48.663Z,25.60
2023-01-26T02:13:22.480Z,25.40
2023-01-26T02:14:54.077Z,24.85
2023-01-26T02:16:26.479Z,29.58
2023-01-26T02:18:02.932Z,22.63
2023-01-26T02:21:15.712Z,26.17
2023-01-26T02:22:56.622Z,27.42
2023-01-26T02:24:37.152Z,35.47
2023-01-26T02:26:12.858Z,23.95
2023-01-26T02:27:44.512Z,27.27
2023-01-26T02:29:16.247Z,26.85
2023-01-26T02:30:49.574Z,24.02
2023-01-26T02:32:21.275Z,26.67
2023-01-26T02:33:52.948Z,30.08
2023-01-26T02:35:25.843Z,28.10
2023-01-26T02:37:01.594Z,23.67
2023-01-26T02:38:42.293Z,26.55
2023-01-26T02:40:26.128Z,26.23
2023-01-26T02:42:16.493Z,27.13
2023-01-26T02:43:48.230Z,28.55
2023-01-26T02:45:21.185Z,27.02
2023-01-26T02:46:53.519Z,23.20
2023-01-26T02:48:44.095Z,29.65
2023-01-26T02:50:16.051Z,25.65
2023-01-26T02:51:48.953Z,22.88
2023-01-26T02:53:20.670Z,26.38
2023-01-26T02:55:11.841Z,30.15
2023-01-26T02:56:43.423Z,25.23
2023-01-26T02:58:15.128Z,27.20
2023-01-26T02:59:46.880Z,26.85
2023-01-26T03:01:19.092Z,31.05
2023-01-26T03:02:56.609Z,22.58
2023-01-26T03:04:29.432Z,25.58
2023-01-26T03:06:01.097Z,20.65
2023-01-26T03:07:32.875Z,27.67
2023-01-26T03:09:04.455Z,25.15
2023-01-26T03:10:36.356Z,29.65
2023-01-26T03:12:07.968Z,29.55
2023-01-26T03:13:39.568Z,23.92
2023-01-26T03:15:30.811Z,28.63
2023-01-26T03:17:02.757Z,26.92
2023-01-26T03:18:54.672Z,25.25
2023-01-26T03:20:45.303Z,23.52
2023-01-26T03:22:35.633Z,20.35
2023-01-26T03:24:30.504Z,25.20
2023-01-26T03:26:22.288Z,28.45
2023-01-26T03:27:53.857Z,22.83
2023-01-26T03:29:26.677Z,25.20
2023-01-26T03:31:01.113Z,26.13
2023-01-26T03:32:35.346Z,23.40
2023-01-26T03:34:09.891Z,24.88
2023-01-26T03:35:41.564Z,26.27
2023-01-26T03:37:13.191Z,31.20
2023-01-26T03:38:50.140Z,23.05
2023-01-26T03:40:40.403Z,26.13
2023-01-26T03:42:30.727Z,20.52
2023-01-26T03:44:20.908Z,22.55
2023-01-26T03:46:11.838Z,22.33
2023-01-26T03:48:02.343Z,31.17
2023-01-26T03:49:53.446Z,26.52
2023-01-26T03:51:43.338Z,24.75
2023-01-26T03:53:41.820Z,26.33
2023-01-26T03:55:34.404Z,24.17
2023-01-26T03:57:06.297Z,23.95
2023-01-26T03:58:38.655Z,26.83
2023-01-26T04:00:11.238Z,25.63
2023-01-26T04:02:05.244Z,29.02
2023-01-26T04:03:56.494Z,27.20
2023-01-26T04:05:46.924Z,27.55
2023-01-26T04:07:37.312Z,28.05
2023-01-26T04:09:08.874Z,27.40
2023-01-26T04:10:40.560Z,27.42
2023-01-26T04:12:14.021Z,30.23
2023-01-26T04:14:16.527Z,28.60
2023-01-26T04:16:06.956Z,28.17
2023-01-26T04:17:57.357Z,28.20
2023-01-26T04:19:47.931Z,22.27
2023-01-26T04:21:29.291Z,28.63
2023-01-26T04:23:01.960Z,28.77
2023-01-26T04:24:34.008Z,30.67
2023-01-26T04:26:05.527Z,28.08
2023-01-26T04:27:37.204Z,25.27
2023-01-26T04:29:14.310Z,24.63
2023-01-26T04:30:47.408Z,32.97
2023-01-26T04:32:19.218Z,29.88
2023-01-26T04:33:52.022Z,27.20
2023-01-26T04:35:23.883Z,29.58
2023-01-26T04:36:55.589Z,27.05
2023-01-26T04:38:30.170Z,27.38
2023-01-26T04:40:02.355Z,27.77
2023-01-26T04:41:35.105Z,21.75
2023-01-26T04:43:10.786Z,23.33
2023-01-26T04:44:42.375Z,27.77
2023-01-26T04:46:14.622Z,23.73
2023-01-26T04:47:46.482Z,23.33
2023-01-26T04:49:20.307Z,21.75
2023-01-26T04:50:56.227Z,27.88
2023-01-26T04:52:29.454Z,29.92
2023-01-26T04:54:01.551Z,25.27
2023-01-26T04:55:33.261Z,25.98
2023-01-26T04:57:04.852Z,29.73
2023-01-26T04:58:38.098Z,31.02
2023-01-26T05:00:12.220Z,25.52
2023-01-26T05:01:44.241Z,22.75
2023-01-26T05:03:15.833Z,26.80
2023-01-26T05:04:47.428Z,27.00
2023-01-26T05:06:20.433Z,25.00
2023-01-26T05:07:53.774Z,24.50
2023-01-26T05:09:26.301Z,24.92
2023-01-26T05:11:14.979Z,24.10
2023-01-26T05:13:09.884Z,18.58
2023-01-26T05:15:00.445Z,22.73
2023-01-26T05:16:50.911Z,24.88
2023-01-26T05:18:51.882Z,22.98
2023-01-26T05:20:49.649Z,25.02
2023-01-26T05:22:29.719Z,25.67
2023-01-26T05:24:36.607Z,21.77
2023-01-26T05:26:14.576Z,25.90
2023-01-26T05:28:05.701Z,23.90
2023-01-26T05:29:37.354Z,22.02
2023-01-26T05:31:09.069Z,21.70
2023-01-26T05:32:40.837Z,21.98
2023-01-26T05:34:12.461Z,18.42
2023-01-26T05:35:45.016Z,18.42
2023-01-26T05:37:16.782Z,18.08
2023-01-26T05:38:49.978Z,19.05
2023-01-26T05:40:26.244Z,18.70
2023-01-26T05:41:58.224Z,21.95
2023-01-26T05:44:01.630Z,16.70
2023-01-26T05:45:44.002Z,16.88
2023-01-26T05:47:17.292Z,18.73
2023-01-26T05:48:53.083Z,19.38
2023-01-26T05:50:24.704Z,19.65
2023-01-26T05:52:34.935Z,18.30
2023-01-26T05:54:06.997Z,20.40
2023-01-26T05:55:38.998Z,25.58
2023-01-26T05:57:12.146Z,16.98
2023-01-26T05:58:48.968Z,19.17
2023-01-26T06:00:20.985Z,18.77
2023-01-26T06:02:01.453Z,23.85
2023-01-26T06:03:33.239Z,17.80
2023-01-26T06:05:05.766Z,19.60
2023-01-26T06:06:37.809Z,14.98
2023-01-26T06:08:47.494Z,23.05
2023-01-26T06:10:37.301Z,20.92
2023-01-26T06:12:21.902Z,18.58
2023-01-26T06:14:06.326Z,16.90
2023-01-26T06:15:38.181Z,16.10
2023-01-26T06:17:10.360Z,21.17
2023-01-26T06:18:42.306Z,19.80
2023-01-26T06:20:14.768Z,20.95
2023-01-26T06:21:49.906Z,21.80
2023-01-26T06:23:21.572Z,21.02
2023-01-26T06:24:53.417Z,20.75
2023-01-26T06:26:25.916Z,19.95
2023-01-26T06:27:59.579Z,18.48
2023-01-26T06:29:34.111Z,19.50
2023-01-26T06:31:08.388Z,20.33
2023-01-26T06:32:40.095Z,16.30
2023-01-26T06:34:12.149Z,16.92
2023-01-26T06:35:46.021Z,20.52
2023-01-26T06:37:17.723Z,18.92
2023-01-26T06:38:50.868Z,17.95
2023-01-26T06:40:22.773Z,18.50
2023-01-26T06:41:54.481Z,19.60
2023-01-26T06:43:26.183Z,15.75
2023-01-26T06:44:58.881Z,21.63
2023-01-26T06:46:30.517Z,14.13
2023-01-26T06:48:02.924Z,20.42
2023-01-26T06:49:34.974Z,16.20
2023-01-26T06:51:15.515Z,16.75
2023-01-26T06:52:51.552Z,15.45
2023-01-26T06:54:41.583Z,18.13
2023-01-26T06:56:23.307Z,22.42
2023-01-26T06:58:15.705Z,18.88
2023-01-26T07:00:08.608Z,16.98
2023-01-26T07:01:49.921Z,17.08
2023-01-26T07:03:21.542Z,17.80
2023-01-26T07:04:53.378Z,19.15
2023-01-26T07:06:24.956Z,18.02
2023-01-26T07:07:56.565Z,20.75
2023-01-26T07:09:28.156Z,18.35
2023-01-26T07:10:59.872Z,17.60
2023-01-26T07:12:42.628Z,18.70
2023-01-26T07:14:14.199Z,20.08
2023-01-26T07:15:45.884Z,17.08
2023-01-26T07:17:17.652Z,17.17
2023-01-26T07:18:49.278Z,17.80
2023-01-26T07:20:20.930Z,24.73
2023-01-26T07:21:52.523Z,20.75
2023-01-26T07:23:24.123Z,18.08
2023-01-26T07:24:55.671Z,23.23
2023-01-26T07:26:27.265Z,20.20
2023-01-26T07:27:59.824Z,14.60
2023-01-26T07:29:31.395Z,18.00
2023-01-26T07:31:05.578Z,16.35
2023-01-26T07:32:37.145Z,15.52
2023-01-26T07:34:09.662Z,19.02
2023-01-26T07:35:41.308Z,17.63
2023-01-26T07:37:12.943Z,27.05
2023-01-26T07:38:44.520Z,23.63
2023-01-26T07:40:16.286Z,18.25
2023-01-26T07:41:49.413Z,26.35
2023-01-26T07:43:43.391Z,34.55
2023-01-26T07:45:17.774Z,40.90
2023-01-26T07:46:49.364Z,55.17
2023-01-26T07:48:23.671Z,51.25
2023-01-26T07:49:55.284Z,37.60
2023-01-26T07:51:26.930Z,32.42
2023-01-26T07:53:00.640Z,21.23
2023-01-26T07:54:32.598Z,20.13
2023-01-26T07:56:14.031Z,22.00
2023-01-26T07:57:48.731Z,20.38
2023-01-26T07:59:23.778Z,22.10
2023-01-26T08:00:56.660Z,23.92
2023-01-26T08:02:28.320Z,17.27
2023-01-26T08:03:59.932Z,21.45
2023-01-26T08:05:32.340Z,16.02
2023-01-26T08:07:04.339Z,14.40
2023-01-26T08:08:36.186Z,17.67
2023-01-26T08:10:08.172Z,15.18
2023-01-26T08:11:40.246Z,20.52
2023-01-26T08:13:11.840Z,21.35
2023-01-26T08:14:46.989Z,19.45
2023-01-26T08:16:19.070Z,14.43
2023-01-26T08:17:51.790Z,23.50
2023-01-26T08:19:25.214Z,21.00
2023-01-26T08:20:56.921Z,20.27
2023-01-26T08:22:28.515Z,19.83
2023-01-26T08:24:02.046Z,19.00
2023-01-26T08:25:34.129Z,19.48
2023-01-26T08:27:05.813Z,17.23
2023-01-26T08:28:37.836Z,21.60
2023-01-26T08:30:10.309Z,17.73
2023-01-26T08:31:42.160Z,14.45
2023-01-26T08:33:13.919Z,16.55
2023-01-26T08:34:45.515Z,16.95
2023-01-26T08:36:21.755Z,14.90
2023-01-26T08:37:53.924Z,17.42
2023-01-26T08:39:25.540Z,17.17
2023-01-26T08:40:57.454Z,20.58
2023-01-26T08:42:29.065Z,17.35
2023-01-26T08:44:00.745Z,19.40
2023-01-26T08:45:32.627Z,19.02
2023-01-26T08:47:04.362Z,18.08
2023-01-26T08:48:36.395Z,19.77
2023-01-26T08:50:09.419Z,20.83
2023-01-26T08:51:41.200Z,18.75
2023-01-26T08:53:13.670Z,24.13
2023-01-26T08:54:45.300Z,18.05
2023-01-26T08:56:17.058Z,16.02
2023-01-26T08:57:52.333Z,16.88
2023-01-26T08:59:23.944Z,17.63
2023-01-26T09:00:55.911Z,15.60
2023-01-26T09:02:27.698Z,16.30
2023-01-26T09:04:00.130Z,15.05
2023-01-26T09:05:34.565Z,18.88
2023-01-26T09:07:06.203Z,20.02
2023-01-26T09:08:38.077Z,18.65
2023-01-26T09:10:10.753Z,17.67
2023-01-26T09:11:42.613Z,17.75
2023-01-26T09:13:14.424Z,18.25
2023-01-26T09:14:46.031Z,20.98
2023-01-26T09:16:20.100Z,20.40
2023-01-26T09:17:52.356Z,17.95
2023-01-26T09:19:24.008Z,21.80
2023-01-26T09:20:56.146Z,34.95
2023-01-26T09:22:27.735Z,17.70
2023-01-26T09:23:59.389Z,20.02
2023-01-26T09:25:31.056Z,22.05
2023-01-26T09:27:02.743Z,25.70
2023-01-26T09:28:34.325Z,19.15
2023-01-26T09:30:07.870Z,18.08
2023-01-26T09:31:40.621Z,14.27
2023-01-26T09:33:12.328Z,17.75
2023-01-26T09:34:45.859Z,13.25
2023-01-26T09:36:18.159Z,12.55
2023-01-26T09:37:49.839Z,15.40
2023-01-26T09:39:21.500Z,11.57
2023-01-26T09:41:11.204Z,16.05
2023-01-26T09:42:51.726Z,19.90
2023-01-26T09:44:25.760Z,15.50
2023-01-26T09:46:12.558Z,15.43
2023-01-26T09:48:12.389Z,15.27
2023-01-26T09:49:49.405Z,14.93
2023-01-26T09:51:32.173Z,15.45
2023-01-26T09:53:30.906Z,13.88
2023-01-26T09:55:05.604Z,19.73
2023-01-26T09:56:37.359Z,18.38
2023-01-26T09:58:39.900Z,17.55
2023-01-26T10:00:26.233Z,15.63
2023-01-26T10:02:20.782Z,14.20
2023-01-26T10:04:26.298Z,14.50
2023-01-26T10:06:01.602Z,13.40
2023-01-26T10:08:11.110Z,15.43
2023-01-26T10:09:47.436Z,16.67
2023-01-26T10:11:27.100Z,14.40
2023-01-26T10:12:59.848Z,14.32
2023-01-26T10:14:52.729Z,13.85
2023-01-26T10:16:25.267Z,13.88
2023-01-26T10:17:59.938Z,13.40
2023-01-26T10:19:37.751Z,11.43
2023-01-26T10:21:12.619Z,14.27
2023-01-26T10:22:46.491Z,12.88
2023-01-26T10:24:22.899Z,13.93
2023-01-26T10:26:01.962Z,14.48
2023-01-26T10:27:33.700Z,14.38
2023-01-26T10:29:05.511Z,14.60
2023-01-26T10:30:40.605Z,13.40
2023-01-26T10:32:18.095Z,13.68
2023-01-26T10:33:52.585Z,11.07
2023-01-26T10:35:25.345Z,12.75
2023-01-26T10:37:20.774Z,16.08
2023-01-26T10:38:52.592Z,20.10
2023-01-26T10:40:25.265Z,13.93
2023-01-26T10:41:59.942Z,13.40
2023-01-26T10:43:41.814Z,14.93
2023-01-26T10:45:30.617Z,14.07
2023-01-26T10:47:03.763Z,16.38
2023-01-26T10:48:35.384Z,19.88
2023-01-26T10:50:24.627Z,23.45
2023-01-26T10:52:24.912Z,21.73
2023-01-26T10:54:19.626Z,23.75
2023-01-26T10:56:07.227Z,37.40
2023-01-26T10:57:41.622Z,16.58
2023-01-26T10:59:25.912Z,14.93
2023-01-26T11:00:57.573Z,18.15
2023-01-26T11:02:31.722Z,26.83
2023-01-26T11:04:12.249Z,29.63
2023-01-26T11:05:47.877Z,32.58
2023-01-26T11:07:32.655Z,19.42
2023-01-26T11:09:20.925Z,15.02
2023-01-26T11:10:52.970Z,31.27
2023-01-26T11:12:26.670Z,24.52
2023-01-26T11:14:18.630Z,28.42
2023-01-26T11:16:02.899Z,16.33
2023-01-26T11:17:44.423Z,37.83
2023-01-26T11:19:28.185Z,26.83
2023-01-26T11:21:20.761Z,14.68
2023-01-26T11:23:22.610Z,12.73
2023-01-26T11:25:14.955Z,11.57
2023-01-26T11:27:11.134Z,21.48
2023-01-26T11:29:04.783Z,24.88
2023-01-26T11:31:10.085Z,23.00
2023-01-26T11:32:57.371Z,15.43
2023-01-26T11:34:29.018Z,15.85
2023-01-26T11:36:28.392Z,14.90
2023-01-26T11:38:23.320Z,14.75
2023-01-26T11:40:17.954Z,12.00
2023-01-26T11:42:07.355Z,10.80
2023-01-26T11:44:00.692Z,11.82
2023-01-26T11:45:38.216Z,11.93
2023-01-26T11:47:19.169Z,14.10
2023-01-26T11:49:08.459Z,14.15
2023-01-26T11:50:50.571Z,15.15
2023-01-26T11:52:43.862Z,10.93
2023-01-26T11:54:58.058Z,9.20
2023-01-26T11:56:51.363Z,12.40
2023-01-26T11:58:43.414Z,13.63
2023-01-26T12:00:29.919Z,10.77
2023-01-26T12:02:26.419Z,9.50
2023-01-26T12:03:59.135Z,11.25
2023-01-26T12:05:41.454Z,16.98
2023-01-26T12:07:20.297Z,13.10
2023-01-26T12:08:53.604Z,11.90
2023-01-26T12:10:43.679Z,13.13
2023-01-26T12:12:24.419Z,10.82
2023-01-26T12:14:20.609Z,11.13
2023-01-26T12:15:58.080Z,14.98
2023-01-26T12:17:59.319Z,12.35
2023-01-26T12:20:04.578Z,12.38
2023-01-26T12:21:38.529Z,11.07
2023-01-26T12:23:28.047Z,9.00
2023-01-26T12:25:22.755Z,13.45
2023-01-26T12:26:54.758Z,12.65
2023-01-26T12:28:35.038Z,14.88
2023-01-26T12:30:19.854Z,11.98
2023-01-26T12:32:14.773Z,11.20
2023-01-26T12:33:51.090Z,11.27
2023-01-26T12:35:53.244Z,10.90
2023-01-26T12:37:47.488Z,11.38
2023-01-26T12:39:45.943Z,12.93
2023-01-26T12:41:42.389Z,14.02
2023-01-26T12:43:36.336Z,14.63
2023-01-26T12:45:18.404Z,12.73
2023-01-26T12:47:08.086Z,14.15
2023-01-26T12:48:49.653Z,12.60
2023-01-26T12:50:53.655Z,13.88
2023-01-26T12:52:36.215Z,15.10
2023-01-26T12:56:01.254Z,12.52
2023-01-26T12:57:42.871Z,15.50
2023-01-26T12:59:47.087Z,19.42
2023-01-26T13:01:24.207Z,12.20
2023-01-26T13:03:02.246Z,12.40
2023-01-26T13:04:34.218Z,12.82
2023-01-26T13:06:15.015Z,15.52
2023-01-26T13:07:46.603Z,12.23
2023-01-26T13:09:18.539Z,13.70
2023-01-26T13:10:50.351Z,16.20
2023-01-26T13:12:55.601Z,11.85
2023-01-26T13:14:37.560Z,16.80
2023-01-26T13:16:15.389Z,11.77
2023-01-26T13:17:51.452Z,14.00
2023-01-26T13:19:41.747Z,14.90
2023-01-26T13:21:17.223Z,12.80
2023-01-26T13:22:48.892Z,15.23
2023-01-26T13:24:20.517Z,11.65
2023-01-26T13:26:15.565Z,14.68
2023-01-26T13:27:57.180Z,13.93
2023-01-26T13:29:32.491Z,14.07
2023-01-26T13:31:06.841Z,14.55
2023-01-26T13:32:41.262Z,16.45
2023-01-26T13:34:16.366Z,12.43
2023-01-26T13:35:50.136Z,14.38
2023-01-26T13:37:30.981Z,12.73
2023-01-26T13:39:11.621Z,12.90
2023-01-26T13:40:50.386Z,16.67
2023-01-26T13:42:31.585Z,16.73
2023-01-26T13:44:17.175Z,13.00
2023-01-26T13:46:24.837Z,15.10
2023-01-26T13:47:58.145Z,12.93
2023-01-26T13:49:40.095Z,15.38
2023-01-26T13:51:15.755Z,11.25
2023-01-26T13:52:47.424Z,15.68
2023-01-26T13:54:19.314Z,12.32
2023-01-26T13:55:58.061Z,11.90
2023-01-26T13:57:31.435Z,12.48
2023-01-26T13:59:08.966Z,17.65
2023-01-26T14:00:40.859Z,17.02
2023-01-26T14:02:22.650Z,16.05
2023-01-26T14:04:05.684Z,25.52
2023-01-26T14:05:37.365Z,26.45
2023-01-26T14:07:19.003Z,36.10
2023-01-26T14:08:55.486Z,31.42
2023-01-26T14:10:27.954Z,25.42
2023-01-26T14:12:03.678Z,30.17
2023-01-26T14:13:38.876Z,28.77
2023-01-26T14:15:23.294Z,19.30
2023-01-26T14:16:57.828Z,19.27
2023-01-26T14:18:29.670Z,13.25
2023-01-26T14:20:03.647Z,19.00
2023-01-26T14:21:58.271Z,20.13
2023-01-26T14:23:34.201Z,13.82
2023-01-26T14:25:10.553Z,18.33
2023-01-26T14:26:43.221Z,13.65
2023-01-26T14:28:16.843Z,14.50
2023-01-26T14:29:48.475Z,20.15
2023-01-26T14:31:23.216Z,18.30
2023-01-26T14:33:16.473Z,13.50
2023-01-26T14:34:53.299Z,15.60
2023-01-26T14:36:27.578Z,21.05
2023-01-26T14:38:14.130Z,16.48
2023-01-26T14:39:48.061Z,22.92
2023-01-26T14:41:24.982Z,21.05
2023-01-26T14:42:57.723Z,18.30
2023-01-26T14:44:30.002Z,25.55
2023-01-26T14:46:08.419Z,18.42
2023-01-26T14:47:42.237Z,21.55
2023-01-26T14:49:43.066Z,20.38
2023-01-26T14:51:24.476Z,19.70
2023-01-26T14:52:56.468Z,19.20
2023-01-26T14:54:32.352Z,20.80
2023-01-26T14:56:04.178Z,13.77
2023-01-26T14:57:35.804Z,20.20
2023-01-26T14:59:09.641Z,17.25
2023-01-26T15:00:41.568Z,16.75
2023-01-26T15:02:49.197Z,20.75
2023-01-26T15:04:31.831Z,17.98
2023-01-26T15:06:13.633Z,14.32
2023-01-26T15:07:46.557Z,16.13
2023-01-26T15:09:20.884Z,14.93
2023-01-26T15:11:19.192Z,13.98
2023-01-26T15:13:03.961Z,17.02
2023-01-26T15:14:38.677Z,16.65
2023-01-26T15:16:19.048Z,21.30
2023-01-26T15:18:04.684Z,23.55
2023-01-26T15:19:41.048Z,14.30
2023-01-26T15:21:15.981Z,16.45
2023-01-26T15:22:52.529Z,15.48
2023-01-26T15:24:24.316Z,16.92
2023-01-26T15:25:56.615Z,16.02
2023-01-26T15:27:33.790Z,17.23
2023-01-26T15:29:17.221Z,21.08
2023-01-26T15:30:51.800Z,15.27
2023-01-26T15:32:32.609Z,12.93
2023-01-26T15:34:05.377Z,17.17
2023-01-26T15:35:37.105Z,17.00
2023-01-26T15:37:29.690Z,16.75
2023-01-26T15:39:14.228Z,17.33
2023-01-26T15:40:45.936Z,16.42
2023-01-26T15:42:24.485Z,15.38
2023-01-26T15:43:57.548Z,18.85
2023-01-26T15:45:33.652Z,19.75
2023-01-26T15:47:08.363Z,17.67
2023-01-26T15:48:40.003Z,18.17
2023-01-26T15:50:27.031Z,17.55
2023-01-26T15:51:59.632Z,17.48
2023-01-26T15:53:31.248Z,20.15
2023-01-26T15:55:18.970Z,16.10
2023-01-26T15:56:50.606Z,17.48
2023-01-26T15:58:23.484Z,16.75
2023-01-26T15:59:55.108Z,19.33
2023-01-26T16:01:31.528Z,14.02
2023-01-26T16:03:14.121Z,20.10
2023-01-26T16:06:22.522Z,15.20
2023-01-26T16:07:54.226Z,14.18
2023-01-26T16:09:25.911Z,17.52
2023-01-26T16:10:57.761Z,16.95
2023-01-26T16:12:32.051Z,16.27
2023-01-26T16:14:04.562Z,21.10
2023-01-26T16:15:42.995Z,17.33
2023-01-26T16:17:17.688Z,18.77
2023-01-26T16:18:49.744Z,23.35
2023-01-26T16:20:21.835Z,16.88
2023-01-26T16:21:53.633Z,15.13
2023-01-26T16:23:32.095Z,20.98
2023-01-26T16:25:18.647Z,16.98
2023-01-26T16:26:50.505Z,17.48
2023-01-26T16:28:22.602Z,19.42
2023-01-26T16:29:54.681Z,16.10
2023-01-26T16:31:30.092Z,15.75
2023-01-26T16:33:02.133Z,16.83
2023-01-26T16:34:34.143Z,19.08
2023-01-26T16:36:06.246Z,18.20
2023-01-26T16:37:38.063Z,17.05
2023-01-26T16:39:09.828Z,14.05
2023-01-26T16:40:44.917Z,18.50
2023-01-26T16:42:19.982Z,17.70
2023-01-26T16:43:54.733Z,15.75
2023-01-26T16:45:26.813Z,17.00
2023-01-26T16:46:58.472Z,16.55
2023-01-26T16:48:34.602Z,19.27
2023-01-26T16:51:39.345Z,16.98
2023-01-26T16:53:17.004Z,20.35
2023-01-26T16:54:50.052Z,18.02
2023-01-26T16:56:23.737Z,23.73
2023-01-26T16:57:55.447Z,16.00
2023-01-26T16:59:27.108Z,17.48
2023-01-26T17:00:58.897Z,15.65
2023-01-26T17:02:35.862Z,18.95
2023-01-26T17:04:10.433Z,21.17
2023-01-26T17:05:42.187Z,19.23
2023-01-26T17:07:13.847Z,15.52
2023-01-26T17:08:46.263Z,21.02
2023-01-26T17:10:18.239Z,20.85
2023-01-26T17:11:50.310Z,21.50
2023-01-26T17:13:22.135Z,19.10
2023-01-26T17:14:54.188Z,20.70
2023-01-26T17:16:34.606Z,17.65
2023-01-26T17:18:06.585Z,20.60
2023-01-26T17:19:38.428Z,20.58
2023-01-26T17:21:10.205Z,20.23
2023-01-26T17:22:41.949Z,26.05
2023-01-26T17:24:13.640Z,16.15
2023-01-26T17:25:47.347Z,23.90
2023-01-26T17:27:18.952Z,21.27
2023-01-26T17:28:54.329Z,22.25
2023-01-26T17:30:26.328Z,20.80
2023-01-26T17:31:58.244Z,19.75
2023-01-26T17:33:30.124Z,20.88
2023-01-26T17:35:01.884Z,18.08
2023-01-26T17:36:33.840Z,20.17
2023-01-26T17:38:05.640Z,28.40
2023-01-26T17:39:37.616Z,19.88
2023-01-26T17:41:09.539Z,17.95
2023-01-26T17:42:41.298Z,20.40
2023-01-26T17:44:14.455Z,20.85
2023-01-26T17:45:46.377Z,23.33
2023-01-26T17:47:18.173Z,18.50
2023-01-26T17:48:50.808Z,19.85
2023-01-26T17:50:22.603Z,21.73
2023-01-26T17:51:54.458Z,21.08
2023-01-26T17:53:27.927Z,21.67
2023-01-26T17:54:59.889Z,21.00
2023-01-26T17:56:31.883Z,26.08
2023-01-26T17:58:05.381Z,21.92
2023-01-26T17:59:37.118Z,18.58
2023-01-26T18:01:10.201Z,20.95
2023-01-26T18:02:41.875Z,19.10
2023-01-26T18:04:14.026Z,23.02
2023-01-26T18:05:56.741Z,23.80
2023-01-26T18:07:29.039Z,15.80
2023-01-26T18:09:00.773Z,17.75
2023-01-26T18:10:32.736Z,20.95
2023-01-26T18:12:04.750Z,24.27
2023-01-26T18:13:36.917Z,23.90
2023-01-26T18:15:08.879Z,24.65
2023-01-26T18:16:40.626Z,20.88
2023-01-26T18:18:13.209Z,18.48
2023-01-26T18:19:45.227Z,19.73
2023-01-26T18:21:19.974Z,22.77
2023-01-26T18:22:51.810Z,18.02
2023-01-26T18:24:23.881Z,19.63
2023-01-26T18:25:55.686Z,22.30
2023-01-26T18:27:27.794Z,21.63
2023-01-26T18:28:59.920Z,20.85
2023-01-26T18:30:31.739Z,20.23
2023-01-26T18:32:03.489Z,20.75
2023-01-26T18:33:35.764Z,21.02
2023-01-26T18:35:07.873Z,25.60
2023-01-26T18:36:39.481Z,21.25
2023-01-26T18:38:11.107Z,20.42
2023-01-26T18:39:42.867Z,18.13
2023-01-26T18:41:17.062Z,23.20
2023-01-26T18:42:49.339Z,20.35
2023-01-26T18:44:22.815Z,24.20
2023-01-26T18:45:54.763Z,24.63
2023-01-26T18:47:28.337Z,22.55
2023-01-26T18:49:01.132Z,29.95
2023-01-26T18:50:33.319Z,32.70
2023-01-26T18:52:05.832Z,22.15
2023-01-26T18:53:41.262Z,26.17
2023-01-26T18:55:14.034Z,30.50
2023-01-26T18:56:47.705Z,22.17
2023-01-26T18:58:20.139Z,34.97
2023-01-26T18:59:52.786Z,25.05
2023-01-26T19:01:26.279Z,18.25
2023-01-26T19:02:58.572Z,21.83
2023-01-26T19:04:30.873Z,25.17
2023-01-26T19:06:05.163Z,35.67
2023-01-26T19:07:37.216Z,24.83
2023-01-26T19:09:09.471Z,30.52
2023-01-26T19:10:41.612Z,24.20
2023-01-26T19:12:13.943Z,25.65
2023-01-26T19:13:47.217Z,20.88
2023-01-26T19:15:19.170Z,25.17
2023-01-26T19:16:51.065Z,26.00
2023-01-26T19:18:23.364Z,15.73
2023-01-26T19:19:55.635Z,18.58
2023-01-26T19:21:28.675Z,18.85
2023-01-26T19:23:01.885Z,28.77
2023-01-26T19:24:33.767Z,26.20
2023-01-26T19:26:18.271Z,23.60
2023-01-26T19:27:51.158Z,27.65
2023-01-26T19:29:23.232Z,25.95
2023-01-26T19:31:03.368Z,23.60
2023-01-26T19:32:35.315Z,21.10
2023-01-26T19:34:08.591Z,23.77
2023-01-26T19:35:40.365Z,20.42
2023-01-26T19:37:12.177Z,21.42
2023-01-26T19:38:44.039Z,19.15
2023-01-26T19:40:16.208Z,15.52
2023-01-26T19:41:48.172Z,21.20
2023-01-26T19:43:20.943Z,14.65
2023-01-26T19:44:52.799Z,17.80
2023-01-26T19:46:24.728Z,17.58
2023-01-26T19:47:56.589Z,14.68
2023-01-26T19:49:28.426Z,14.25
2023-01-26T19:51:08.396Z,12.77
2023-01-26T19:52:40.477Z,14.88
2023-01-26T19:54:13.825Z,14.30
2023-01-26T19:55:45.535Z,17.40
2023-01-26T19:57:18.000Z,13.43
2023-01-26T19:58:52.168Z,14.23
2023-01-26T20:00:23.893Z,12.45
2023-01-26T20:01:56.224Z,15.13
2023-01-26T20:03:28.495Z,14.52
2023-01-26T20:05:00.631Z,14.07
2023-01-26T20:06:34.886Z,16.33
2023-01-26T20:08:07.731Z,12.27
2023-01-26T20:09:40.782Z,14.35
2023-01-26T20:11:13.208Z,18.55
2023-01-26T20:12:45.903Z,16.83
2023-01-26T20:14:18.051Z,14.63
2023-01-26T20:15:50.481Z,15.25
2023-01-26T20:17:22.898Z,15.48
2023-01-26T20:18:56.646Z,13.02
2023-01-26T20:20:28.686Z,16.27
2023-01-26T20:22:02.492Z,18.73
2023-01-26T20:23:39.679Z,14.40
2023-01-26T20:25:18.262Z,12.48
2023-01-26T20:26:51.079Z,14.38
2023-01-26T20:28:23.464Z,13.93
2023-01-26T20:29:55.693Z,15.25
2023-01-26T20:31:28.582Z,16.42
2023-01-26T20:33:02.812Z,15.82
2023-01-26T20:34:35.408Z,15.98
2023-01-26T20:36:16.937Z,14.23
2023-01-26T20:37:48.866Z,19.13
2023-01-26T20:39:25.363Z,16.05
2023-01-26T20:40:58.054Z,14.85
2023-01-26T20:42:30.264Z,14.52
2023-01-26T20:44:05.394Z,16.75
2023-01-26T20:45:41.070Z,17.98
2023-01-26T20:47:12.950Z,16.15
2023-01-26T20:48:45.023Z,13.05
2023-01-26T20:50:17.577Z,15.57
2023-01-26T20:51:49.660Z,17.17
2023-01-26T20:53:22.125Z,19.33
2023-01-26T20:54:54.308Z,18.75